sensor_id;sensor_type;location;lat;lon;timestamp;pressure;altitude;pressure_sealevel;temperature;humidity
11487;BME280;10510;47.942;9.442;2023-01-25T00:01:11;95896.78;;;-0.24;100.00
11487;BME280;10510;47.942;9.442;2023-01-25T00:03:11;95896.78;;;-0.24;100.00
11487;BME280;10510;47.942;9.442;2023-01-25T00:05:12;95891.63;;;-0.24;100.00
11487;BME280;10510;47.942;9.442;2023-01-25T00:07:12;95889.97;;;-0.25;100.00
11487;BME280;10510;47.942;9.442;2023-01-25T00:09:13;95886.50;;;-0.24;100.00
11487;BME280;10510;47.942;9.442;2023-01-25T00:11:13;95883.09;;;-0.25;100.00
11487;BME280;10510;47.942;9.442;2023-01-25T00:13:16;95877.13;;;-0.25;100.00
11487;BME280;10510;47.942;9.442;2023-01-25T00:15:16;95876.38;;;-0.27;100.00
11487;BME280;10510;47.942;9.442;2023-01-25T00:17:16;95873.81;;;-0.27;100.00
11487;BME280;10510;47.942;9.442;2023-01-25T00:19:17;95868.69;;;-0.27;100.00
11487;BME280;10510;47.942;9.442;2023-01-25T00:21:20;95864.47;;;-0.28;100.00
11487;BME280;10510;47.942;9.442;2023-01-25T00:23:21;95867.09;;;-0.30;100.00
11487;BME280;10510;47.942;9.442;2023-01-25T00:25:21;95869.78;;;-0.31;100.00
11487;BME280;10510;47.942;9.442;2023-01-25T00:27:21;95867.22;;;-0.31;100.00
11487;BME280;10510;47.942;9.442;2023-01-25T00:29:21;95869.84;;;-0.33;100.00
11487;BME280;10510;47.942;9.442;2023-01-25T00:31:35;95868.13;;;-0.32;100.00
11487;BME280;10510;47.942;9.442;2023-01-25T00:35:37;95856.28;;;-0.35;100.00
11487;BME280;10510;47.942;9.442;2023-01-25T00:37:41;95858.03;;;-0.35;100.00
11487;BME280;10510;47.942;9.442;2023-01-25T00:39:42;95858.03;;;-0.35;100.00
11487;BME280;10510;47.942;9.442;2023-01-25T00:41:43;95853.72;;;-0.35;100.00
11487;BME280;10510;47.942;9.442;2023-01-25T00:43:43;95853.78;;;-0.36;100.00
11487;BME280;10510;47.942;9.442;2023-01-25T00:45:43;95850.41;;;-0.37;100.00
11487;BME280;10510;47.942;9.442;2023-01-25T00:47:44;95852.91;;;-0.35;100.00
11487;BME280;10510;47.942;9.442;2023-01-25T00:49:44;95854.63;;;-0.36;100.00
11487;BME280;10510;47.942;9.442;2023-01-25T00:51:45;95847.75;;;-0.35;100.00
11487;BME280;10510;47.942;9.442;2023-01-25T00:53:45;95851.03;;;-0.33;100.00
11487;BME280;10510;47.942;9.442;2023-01-25T00:55:52;95855.47;;;-0.35;100.00
11487;BME280;10510;47.942;9.442;2023-01-25T00:57:52;95853.63;;;-0.33;100.00
11487;BME280;10510;47.942;9.442;2023-01-25T00:59:52;95862.06;;;-0.31;100.00
11487;BME280;10510;47.942;9.442;2023-01-25T01:01:53;95854.38;;;-0.31;100.00
11487;BME280;10510;47.942;9.442;2023-01-25T01:03:54;95855.19;;;-0.31;100.00
11487;BME280;10510;47.942;9.442;2023-01-25T01:06:05;95864.66;;;-0.31;100.00
11487;BME280;10510;47.942;9.442;2023-01-25T01:08:06;95856.94;;;-0.31;100.00
11487;BME280;10510;47.942;9.442;2023-01-25T01:10:06;95856.13;;;-0.32;100.00
11487;BME280;10510;47.942;9.442;2023-01-25T01:12:07;95857.75;;;-0.31;100.00
11487;BME280;10510;47.942;9.442;2023-01-25T01:14:07;95863.00;;;-0.32;100.00
11487;BME280;10510;47.942;9.442;2023-01-25T01:16:10;95861.31;;;-0.33;100.00
11487;BME280;10510;47.942;9.442;2023-01-25T01:18:11;95863.06;;;-0.34;100.00
11487;BME280;10510;47.942;9.442;2023-01-25T01:20:11;95857.94;;;-0.34;100.00
11487;BME280;10510;47.942;9.442;2023-01-25T01:22:12;95866.56;;;-0.35;100.00
11487;BME280;10510;47.942;9.442;2023-01-25T01:24:12;95867.47;;;-0.36;100.00
11487;BME280;10510;47.942;9.442;2023-01-25T01:26:14;95859.94;;;-0.39;100.00
11487;BME280;10510;47.942;9.442;2023-01-25T01:28:14;95857.47;;;-0.40;100.00
11487;BME280;10510;47.942;9.442;2023-01-25T01:30:15;95856.63;;;-0.41;100.00
11487;BME280;10510;47.942;9.442;2023-01-25T01:32:15;95860.94;;;-0.41;100.00
11487;BME280;10510;47.942;9.442;2023-01-25T01:34:15;95861.03;;;-0.43;100.00
11487;BME280;10510;47.942;9.442;2023-01-25T01:36:17;95863.59;;;-0.43;100.00
11487;BME280;10510;47.942;9.442;2023-01-25T01:38:18;95865.34;;;-0.43;100.00
11487;BME280;10510;47.942;9.442;2023-01-25T01:40:18;95856.88;;;-0.46;100.00
11487;BME280;10510;47.942;9.442;2023-01-25T01:42:18;95858.53;;;-0.44;100.00
11487;BME280;10510;47.942;9.442;2023-01-25T01:44:39;95856.81;;;-0.44;100.00
11487;BME280;10510;47.942;9.442;2023-01-25T01:46:41;95855.97;;;-0.44;100.00
11487;BME280;10510;47.942;9.442;2023-01-25T01:50:59;95853.38;;;-0.44;100.00
11487;BME280;10510;47.942;9.442;2023-01-25T01:53:00;95854.25;;;-0.44;100.00
11487;BME280;10510;47.942;9.442;2023-01-25T01:55:07;95857.63;;;-0.43;100.00
11487;BME280;10510;47.942;9.442;2023-01-25T01:57:14;95849.00;;;-0.42;100.00
11487;BME280;10510;47.942;9.442;2023-01-25T01:59:15;95852.41;;;-0.42;100.00
11487;BME280;10510;47.942;9.442;2023-01-25T02:01:17;95851.56;;;-0.42;100.00
11487;BME280;10510;47.942;9.442;2023-01-25T02:03:19;95853.22;;;-0.41;100.00
11487;BME280;10510;47.942;9.442;2023-01-25T02:07:37;95857.53;;;-0.42;100.00
11487;BME280;10510;47.942;9.442;2023-01-25T02:09:38;95860.03;;;-0.40;100.00
11487;BME280;10510;47.942;9.442;2023-01-25T02:11:39;95850.56;;;-0.40;100.00
11487;BME280;10510;47.942;9.442;2023-01-25T02:13:40;95849.75;;;-0.40;100.00
11487;BME280;10510;47.942;9.442;2023-01-25T02:15:43;95854.91;;;-0.40;100.00
11487;BME280;10510;47.942;9.442;2023-01-25T02:17:46;95843.78;;;-0.41;100.00
11487;BME280;10510;47.942;9.442;2023-01-25T02:19:54;95844.63;;;-0.40;100.00
11487;BME280;10510;47.942;9.442;2023-01-25T02:21:58;95839.66;;;-0.43;100.00
11487;BME280;10510;47.942;9.442;2023-01-25T02:24:06;95847.44;;;-0.45;100.00
11487;BME280;10510;47.942;9.442;2023-01-25T02:26:08;95838.91;;;-0.46;100.00
11487;BME280;10510;47.942;9.442;2023-01-25T02:30:15;95829.56;;;-0.47;100.00
11487;BME280;10510;47.942;9.442;2023-01-25T02:32:16;95835.50;;;-0.46;100.00
11487;BME280;10510;47.942;9.442;2023-01-25T02:34:16;95835.59;;;-0.48;100.00
11487;BME280;10510;47.942;9.442;2023-01-25T02:36:20;95831.31;;;-0.47;100.00
11487;BME280;10510;47.942;9.442;2023-01-25T02:38:21;95837.25;;;-0.47;100.00
11487;BME280;10510;47.942;9.442;2023-01-25T02:40:21;95833.88;;;-0.47;100.00
11487;BME280;10510;47.942;9.442;2023-01-25T02:42:21;95833.88;;;-0.47;100.00
11487;BME280;10510;47.942;9.442;2023-01-25T02:44:27;95832.94;;;-0.46;100.00
11487;BME280;10510;47.942;9.442;2023-01-25T02:46:30;95833.88;;;-0.47;100.00
11487;BME280;10510;47.942;9.442;2023-01-25T02:48:31;95830.38;;;-0.46;100.00
11487;BME280;10510;47.942;9.442;2023-01-25T02:50:32;95832.94;;;-0.46;100.00
11487;BME280;10510;47.942;9.442;2023-01-25T02:52:32;95829.63;;;-0.48;100.00
11487;BME280;10510;47.942;9.442;2023-01-25T02:54:32;95834.69;;;-0.47;100.00
11487;BME280;10510;47.942;9.442;2023-01-25T02:56:33;95837.25;;;-0.47;100.00
11487;BME280;10510;47.942;9.442;2023-01-25T02:58:33;95836.34;;;-0.46;100.00
11487;BME280;10510;47.942;9.442;2023-01-25T03:00:34;95828.63;;;-0.46;100.00
11487;BME280;10510;47.942;9.442;2023-01-25T03:02:34;95826.06;;;-0.46;100.00
11487;BME280;10510;47.942;9.442;2023-01-25T03:04:34;95818.34;;;-0.46;100.00
11487;BME280;10510;47.942;9.442;2023-01-25T03:06:35;95827.69;;;-0.44;100.00
11487;BME280;10510;47.942;9.442;2023-01-25T03:08:35;95830.44;;;-0.48;100.00
11487;BME280;10510;47.942;9.442;2023-01-25T03:10:35;95814.38;;;-0.51;100.00
11487;BME280;10510;47.942;9.442;2023-01-25T03:12:36;95818.72;;;-0.52;100.00
11487;BME280;10510;47.942;9.442;2023-01-25T03:14:36;95815.38;;;-0.54;100.00
11487;BME280;10510;47.942;9.442;2023-01-25T03:16:36;95808.50;;;-0.53;100.00
11487;BME280;10510;47.942;9.442;2023-01-25T03:18:37;95805.13;;;-0.54;100.00
11487;BME280;10510;47.942;9.442;2023-01-25T03:20:38;95803.38;;;-0.53;100.00
11487;BME280;10510;47.942;9.442;2023-01-25T03:22:38;95807.59;;;-0.52;100.00
11487;BME280;10510;47.942;9.442;2023-01-25T03:24:38;95804.22;;;-0.53;100.00
11487;BME280;10510;47.942;9.442;2023-01-25T03:26:39;95805.03;;;-0.52;100.00
11487;BME280;10510;47.942;9.442;2023-01-25T03:28:57;95802.38;;;-0.51;100.00
11487;BME280;10510;47.942;9.442;2023-01-25T03:30:58;95799.91;;;-0.52;100.00
11487;BME280;10510;47.942;9.442;2023-01-25T03:32:58;95799.91;;;-0.52;100.00
11487;BME280;10510;47.942;9.442;2023-01-25T03:34:58;95799.91;;;-0.52;100.00
11487;BME280;10510;47.942;9.442;2023-01-25T03:36:58;95800.78;;;-0.53;100.00
11487;BME280;10510;47.942;9.442;2023-01-25T03:38:59;95800.09;;;-0.55;100.00
11487;BME280;10510;47.942;9.442;2023-01-25T03:40:59;95789.16;;;-0.59;100.00
11487;BME280;10510;47.942;9.442;2023-01-25T03:42:59;95794.38;;;-0.60;100.00
11487;BME280;10510;47.942;9.442;2023-01-25T03:44:59;95798.69;;;-0.61;100.00
11487;BME280;10510;47.942;9.442;2023-01-25T03:47:00;95798.75;;;-0.62;100.00
11487;BME280;10510;47.942;9.442;2023-01-25T03:49:00;95802.25;;;-0.63;100.00
11487;BME280;10510;47.942;9.442;2023-01-25T03:51:00;95804.06;;;-0.65;100.00
11487;BME280;10510;47.942;9.442;2023-01-25T03:53:01;95797.19;;;-0.65;100.00
11487;BME280;10510;47.942;9.442;2023-01-25T03:55:06;95795.53;;;-0.66;100.00
11487;BME280;10510;47.942;9.442;2023-01-25T03:57:06;95793.78;;;-0.65;100.00
11487;BME280;10510;47.942;9.442;2023-01-25T03:59:07;95796.28;;;-0.64;100.00
11487;BME280;10510;47.942;9.442;2023-01-25T04:01:07;95789.47;;;-0.65;100.00
11487;BME280;10510;47.942;9.442;2023-01-25T04:03:07;95792.16;;;-0.66;100.00
11487;BME280;10510;47.942;9.442;2023-01-25T04:05:08;95795.72;;;-0.69;100.00
11487;BME280;10510;47.942;9.442;2023-01-25T04:07:08;95790.69;;;-0.71;100.00
11487;BME280;10510;47.942;9.442;2023-01-25T04:09:08;95792.50;;;-0.73;100.00
11487;BME280;10510;47.942;9.442;2023-01-25T04:11:09;95787.38;;;-0.73;100.00
11487;BME280;10510;47.942;9.442;2023-01-25T04:13:09;95801.03;;;-0.72;100.00
11487;BME280;10510;47.942;9.442;2023-01-25T04:15:10;95798.53;;;-0.74;100.00
11487;BME280;10510;47.942;9.442;2023-01-25T04:17:10;95793.41;;;-0.74;100.00
11487;BME280;10510;47.942;9.442;2023-01-25T04:19:10;95783.22;;;-0.75;100.00
11487;BME280;10510;47.942;9.442;2023-01-25T04:21:10;95784.06;;;-0.75;100.00
11487;BME280;10510;47.942;9.442;2023-01-25T04:23:11;95786.72;;;-0.76;100.00
11487;BME280;10510;47.942;9.442;2023-01-25T04:25:12;95791.84;;;-0.76;100.00
11487;BME280;10510;47.942;9.442;2023-01-25T04:27:12;95781.59;;;-0.76;100.00
11487;BME280;10510;47.942;9.442;2023-01-25T04:29:12;95781.59;;;-0.76;100.00
11487;BME280;10510;47.942;9.442;2023-01-25T04:31:12;95776.44;;;-0.76;100.00
11487;BME280;10510;47.942;9.442;2023-01-25T04:33:13;95765.44;;;-0.78;100.00
11487;BME280;10510;47.942;9.442;2023-01-25T04:35:13;95770.63;;;-0.80;100.00
11487;BME280;10510;47.942;9.442;2023-01-25T04:37:13;95762.22;;;-0.82;100.00
11487;BME280;10510;47.942;9.442;2023-01-25T04:39:14;95757.91;;;-0.81;100.00
11487;BME280;10510;47.942;9.442;2023-01-25T04:41:14;95762.94;;;-0.80;100.00
11487;BME280;10510;47.942;9.442;2023-01-25T04:43:15;95768.16;;;-0.81;100.00
11487;BME280;10510;47.942;9.442;2023-01-25T04:45:15;95767.25;;;-0.80;100.00
11487;BME280;10510;47.942;9.442;2023-01-25T04:47:15;95761.22;;;-0.79;100.00
11487;BME280;10510;47.942;9.442;2023-01-25T04:49:16;95771.38;;;-0.78;100.00
11487;BME280;10510;47.942;9.442;2023-01-25T04:51:16;95767.19;;;-0.79;100.00
11487;BME280;10510;47.942;9.442;2023-01-25T04:53:16;95762.03;;;-0.79;100.00
11487;BME280;10510;47.942;9.442;2023-01-25T04:55:17;95766.34;;;-0.79;100.00
11487;BME280;10510;47.942;9.442;2023-01-25T04:57:17;95768.91;;;-0.79;100.00
11487;BME280;10510;47.942;9.442;2023-01-25T04:59:17;95779.09;;;-0.78;100.00
11487;BME280;10510;47.942;9.442;2023-01-25T05:01:17;95767.19;;;-0.79;100.00
11487;BME280;10510;47.942;9.442;2023-01-25T05:03:18;95762.88;;;-0.78;100.00
11487;BME280;10510;47.942;9.442;2023-01-25T05:05:18;95764.50;;;-0.77;100.00
11487;BME280;10510;47.942;9.442;2023-01-25T05:07:18;95765.31;;;-0.77;100.00
11487;BME280;10510;47.942;9.442;2023-01-25T05:09:18;95757.56;;;-0.75;100.00
11487;BME280;10510;47.942;9.442;2023-01-25T05:11:19;95767.81;;;-0.75;100.00
11487;BME280;10510;47.942;9.442;2023-01-25T05:13:20;95763.63;;;-0.76;100.00
11487;BME280;10510;47.942;9.442;2023-01-25T05:15:20;95772.13;;;-0.76;100.00
11487;BME280;10510;47.942;9.442;2023-01-25T05:17:21;95761.13;;;-0.78;100.00
11487;BME280;10510;47.942;9.442;2023-01-25T05:19:21;95763.78;;;-0.79;100.00
11487;BME280;10510;47.942;9.442;2023-01-25T05:21:21;95760.47;;;-0.81;100.00
11487;BME280;10510;47.942;9.442;2023-01-25T05:23:40;95757.97;;;-0.83;100.00
11487;BME280;10510;47.942;9.442;2023-01-25T05:25:41;95750.38;;;-0.84;100.00
11487;BME280;10510;47.942;9.442;2023-01-25T05:28:04;95753.84;;;-0.85;100.00
11487;BME280;10510;47.942;9.442;2023-01-25T05:30:05;95747.00;;;-0.85;100.00
11487;BME280;10510;47.942;9.442;2023-01-25T05:34:10;95752.13;;;-0.85;100.00
11487;BME280;10510;47.942;9.442;2023-01-25T05:36:10;95753.13;;;-0.87;100.00
11487;BME280;10510;47.942;9.442;2023-01-25T05:38:10;95742.84;;;-0.87;100.00
11487;BME280;10510;47.942;9.442;2023-01-25T05:40:11;95744.50;;;-0.86;100.00
11487;BME280;10510;47.942;9.442;2023-01-25T05:42:14;95744.50;;;-0.86;100.00
11487;BME280;10510;47.942;9.442;2023-01-25T05:44:15;95747.06;;;-0.86;100.00
11487;BME280;10510;47.942;9.442;2023-01-25T05:46:16;95745.41;;;-0.87;100.00
11487;BME280;10510;47.942;9.442;2023-01-25T05:48:16;95752.19;;;-0.86;100.00
11487;BME280;10510;47.942;9.442;2023-01-25T05:50:16;95748.69;;;-0.85;100.00
11487;BME280;10510;47.942;9.442;2023-01-25T05:52:16;95749.56;;;-0.85;100.00
11487;BME280;10510;47.942;9.442;2023-01-25T05:54:17;95747.00;;;-0.85;100.00
11487;BME280;10510;47.942;9.442;2023-01-25T05:56:18;95747.81;;;-0.84;100.00
11487;BME280;10510;47.942;9.442;2023-01-25T05:58:18;95746.88;;;-0.83;100.00
11487;BME280;10510;47.942;9.442;2023-01-25T06:00:19;95741.69;;;-0.82;100.00
11487;BME280;10510;47.942;9.442;2023-01-25T06:02:19;95743.44;;;-0.82;100.00
11487;BME280;10510;47.942;9.442;2023-01-25T06:04:20;95747.63;;;-0.81;100.00
11487;BME280;10510;47.942;9.442;2023-01-25T06:06:20;95739.94;;;-0.81;100.00
11487;BME280;10510;47.942;9.442;2023-01-25T06:08:20;95745.88;;;-0.81;100.00
11487;BME280;10510;47.942;9.442;2023-01-25T06:10:20;95741.56;;;-0.80;100.00
11487;BME280;10510;47.942;9.442;2023-01-25T06:12:21;95733.88;;;-0.80;100.00
11487;BME280;10510;47.942;9.442;2023-01-25T06:14:21;95744.97;;;-0.80;100.00
11487;BME280;10510;47.942;9.442;2023-01-25T06:16:22;95735.53;;;-0.79;100.00
11487;BME280;10510;47.942;9.442;2023-01-25T06:18:23;95736.38;;;-0.79;100.00
11487;BME280;10510;47.942;9.442;2023-01-25T06:20:23;95742.31;;;-0.78;100.00
11487;BME280;10510;47.942;9.442;2023-01-25T06:22:23;95743.97;;;-0.77;100.00
11487;BME280;10510;47.942;9.442;2023-01-25T06:24:24;95739.66;;;-0.77;100.00
11487;BME280;10510;47.942;9.442;2023-01-25T06:26:24;95743.78;;;-0.74;100.00
11487;BME280;10510;47.942;9.442;2023-01-25T06:28:24;95742.97;;;-0.75;100.00
11487;BME280;10510;47.942;9.442;2023-01-25T06:30:25;95742.16;;;-0.75;100.00
11487;BME280;10510;47.942;9.442;2023-01-25T06:32:30;95743.78;;;-0.74;100.00
11487;BME280;10510;47.942;9.442;2023-01-25T06:34:31;95744.63;;;-0.74;100.00
11487;BME280;10510;47.942;9.442;2023-01-25T06:36:31;95744.53;;;-0.72;100.00
11487;BME280;10510;47.942;9.442;2023-01-25T06:38:31;95742.16;;;-0.75;100.00
11487;BME280;10510;47.942;9.442;2023-01-25T06:40:32;95731.94;;;-0.77;100.00
11487;BME280;10510;47.942;9.442;2023-01-25T06:42:32;95727.75;;;-0.78;100.00
11487;BME280;10510;47.942;9.442;2023-01-25T06:44:32;95727.75;;;-0.78;100.00
11487;BME280;10510;47.942;9.442;2023-01-25T06:46:33;95734.69;;;-0.80;100.00
11487;BME280;10510;47.942;9.442;2023-01-25T06:48:34;95732.97;;;-0.79;100.00
11487;BME280;10510;47.942;9.442;2023-01-25T06:50:35;95727.84;;;-0.79;100.00
11487;BME280;10510;47.942;9.442;2023-01-25T06:52:35;95733.06;;;-0.81;100.00
11487;BME280;10510;47.942;9.442;2023-01-25T06:54:36;95733.88;;;-0.80;100.00
11487;BME280;10510;47.942;9.442;2023-01-25T06:56:36;95731.22;;;-0.79;100.00
11487;BME280;10510;47.942;9.442;2023-01-25T06:58:36;95739.66;;;-0.77;100.00
11487;BME280;10510;47.942;9.442;2023-01-25T07:00:37;95731.94;;;-0.77;100.00
11487;BME280;10510;47.942;9.442;2023-01-25T07:02:37;95725.19;;;-0.78;100.00
11487;BME280;10510;47.942;9.442;2023-01-25T07:04:38;95727.84;;;-0.79;100.00
11487;BME280;10510;47.942;9.442;2023-01-25T07:06:39;95731.22;;;-0.79;100.00
11487;BME280;10510;47.942;9.442;2023-01-25T07:08:39;95727.00;;;-0.80;100.00
11487;BME280;10510;47.942;9.442;2023-01-25T07:10:40;95727.91;;;-0.81;100.00
11487;BME280;10510;47.942;9.442;2023-01-25T07:12:40;95721.03;;;-0.80;100.00
11487;BME280;10510;47.942;9.442;2023-01-25T07:14:40;95732.88;;;-0.78;100.00
11487;BME280;10510;47.942;9.442;2023-01-25T07:16:41;95725.28;;;-0.79;100.00
11487;BME280;10510;47.942;9.442;2023-01-25T07:18:41;95729.50;;;-0.78;100.00
11487;BME280;10510;47.942;9.442;2023-01-25T07:20:41;95732.88;;;-0.78;100.00
11487;BME280;10510;47.942;9.442;2023-01-25T07:22:42;95723.53;;;-0.79;100.00
11487;BME280;10510;47.942;9.442;2023-01-25T07:24:42;95722.72;;;-0.79;100.00
11487;BME280;10510;47.942;9.442;2023-01-25T07:26:48;95724.44;;;-0.80;100.00
11487;BME280;10510;47.942;9.442;2023-01-25T07:28:50;95716.00;;;-0.82;100.00
11487;BME280;10510;47.942;9.442;2023-01-25T07:30:50;95714.25;;;-0.81;100.00
11487;BME280;10510;47.942;9.442;2023-01-25T07:32:51;95715.09;;;-0.81;100.00
11487;BME280;10510;47.942;9.442;2023-01-25T07:34:51;95718.47;;;-0.80;100.00
11487;BME280;10510;47.942;9.442;2023-01-25T07:36:51;95713.50;;;-0.83;100.00
11487;BME280;10510;47.942;9.442;2023-01-25T07:38:53;95716.25;;;-0.86;100.00
11487;BME280;10510;47.942;9.442;2023-01-25T07:40:54;95724.78;;;-0.86;100.00
11487;BME280;10510;47.942;9.442;2023-01-25T07:42:54;95725.69;;;-0.87;100.00
11487;BME280;10510;47.942;9.442;2023-01-25T07:44:55;95725.78;;;-0.88;100.00
11487;BME280;10510;47.942;9.442;2023-01-25T07:46:55;95723.31;;;-0.90;100.00
11487;BME280;10510;47.942;9.442;2023-01-25T07:48:55;95726.69;;;-0.89;100.00
11487;BME280;10510;47.942;9.442;2023-01-25T07:51:03;95716.44;;;-0.89;100.00
11487;BME280;10510;47.942;9.442;2023-01-25T07:53:21;95714.69;;;-0.89;100.00
11487;BME280;10510;47.942;9.442;2023-01-25T07:55:21;95715.63;;;-0.90;100.00
11487;BME280;10510;47.942;9.442;2023-01-25T07:57:22;95721.56;;;-0.89;100.00
11487;BME280;10510;47.942;9.442;2023-01-25T07:59:23;95719.09;;;-0.91;100.00
11487;BME280;10510;47.942;9.442;2023-01-25T08:01:25;95709.66;;;-0.90;100.00
11487;BME280;10510;47.942;9.442;2023-01-25T08:03:26;95711.41;;;-0.91;100.00
11487;BME280;10510;47.942;9.442;2023-01-25T08:05:26;95712.22;;;-0.90;100.00
11487;BME280;10510;47.942;9.442;2023-01-25T08:07:28;95706.16;;;-0.89;100.00
11487;BME280;10510;47.942;9.442;2023-01-25T08:09:28;95708.72;;;-0.89;100.00
11487;BME280;10510;47.942;9.442;2023-01-25T08:11:29;95713.88;;;-0.89;100.00
11487;BME280;10510;47.942;9.442;2023-01-25T08:13:30;95702.78;;;-0.90;100.00
11487;BME280;10510;47.942;9.442;2023-01-25T08:15:30;95705.25;;;-0.88;100.00
11487;BME280;10510;47.942;9.442;2023-01-25T08:17:30;95700.97;;;-0.88;100.00
11487;BME280;10510;47.942;9.442;2023-01-25T08:19:31;95700.03;;;-0.87;100.00
11487;BME280;10510;47.942;9.442;2023-01-25T08:21:33;95693.25;;;-0.88;100.00
11487;BME280;10510;47.942;9.442;2023-01-25T08:23:34;95693.16;;;-0.86;100.00
11487;BME280;10510;47.942;9.442;2023-01-25T08:25:34;95689.75;;;-0.87;100.00
11487;BME280;10510;47.942;9.442;2023-01-25T08:27:35;95692.34;;;-0.87;100.00
11487;BME280;10510;47.942;9.442;2023-01-25T08:29:37;95691.34;;;-0.84;100.00
11487;BME280;10510;47.942;9.442;2023-01-25T08:31:39;95691.16;;;-0.81;100.00
11487;BME280;10510;47.942;9.442;2023-01-25T08:33:41;95690.22;;;-0.80;100.00
11487;BME280;10510;47.942;9.442;2023-01-25T08:35:53;95690.34;;;-0.82;100.00
11487;BME280;10510;47.942;9.442;2023-01-25T08:37:53;95686.03;;;-0.81;100.00
11487;BME280;10510;47.942;9.442;2023-01-25T08:39:55;95682.34;;;-0.77;100.00
11487;BME280;10510;47.942;9.442;2023-01-25T08:41:57;95689.16;;;-0.76;100.00
11487;BME280;10510;47.942;9.442;2023-01-25T08:43:58;95685.66;;;-0.75;100.00
11487;BME280;10510;47.942;9.442;2023-01-25T08:45:58;95671.25;;;-0.78;100.00
11487;BME280;10510;47.942;9.442;2023-01-25T08:47:59;95670.25;;;-0.75;100.00
11487;BME280;10510;47.942;9.442;2023-01-25T08:49:59;95660.72;;;-0.73;100.00
11487;BME280;10510;47.942;9.442;2023-01-25T08:52:00;95660.00;;;-0.75;100.00
11487;BME280;10510;47.942;9.442;2023-01-25T08:54:05;95656.50;;;-0.74;100.00
11487;BME280;10510;47.942;9.442;2023-01-25T08:56:08;95654.84;;;-0.75;100.00
11487;BME280;10510;47.942;9.442;2023-01-25T08:58:13;95647.91;;;-0.73;100.00
11487;BME280;10510;47.942;9.442;2023-01-25T09:00:15;95642.00;;;-0.75;100.00
11487;BME280;10510;47.942;9.442;2023-01-25T09:02:16;95647.03;;;-0.74;100.00
11487;BME280;10510;47.942;9.442;2023-01-25T09:04:18;95643.59;;;-0.73;100.00
11487;BME280;10510;47.942;9.442;2023-01-25T09:06:19;95645.34;;;-0.73;100.00
11487;BME280;10510;47.942;9.442;2023-01-25T09:08:19;95646.22;;;-0.74;100.00
11487;BME280;10510;47.942;9.442;2023-01-25T09:10:19;95644.47;;;-0.74;100.00
11487;BME280;10510;47.942;9.442;2023-01-25T09:12:20;95641.91;;;-0.74;100.00
11487;BME280;10510;47.942;9.442;2023-01-25T09:14:21;95639.44;;;-0.75;100.00
11487;BME280;10510;47.942;9.442;2023-01-25T09:16:23;95638.81;;;-0.79;100.00
11487;BME280;10510;47.942;9.442;2023-01-25T09:18:30;95640.56;;;-0.79;100.00
11487;BME280;10510;47.942;9.442;2023-01-25T09:20:31;95637.88;;;-0.78;100.00
11487;BME280;10510;47.942;9.442;2023-01-25T09:22:31;95643.84;;;-0.77;100.00
11487;BME280;10510;47.942;9.442;2023-01-25T09:24:32;95638.63;;;-0.76;100.00
11487;BME280;10510;47.942;9.442;2023-01-25T09:26:39;95642.75;;;-0.73;100.00
11487;BME280;10510;47.942;9.442;2023-01-25T09:28:40;95648.72;;;-0.73;100.00
11487;BME280;10510;47.942;9.442;2023-01-25T09:30:41;95643.59;;;-0.73;100.00
11487;BME280;10510;47.942;9.442;2023-01-25T09:32:43;95635.97;;;-0.74;100.00
11487;BME280;10510;47.942;9.442;2023-01-25T09:34:43;95641.00;;;-0.73;100.00
11487;BME280;10510;47.942;9.442;2023-01-25T09:36:44;95632.31;;;-0.70;100.00
11487;BME280;10510;47.942;9.442;2023-01-25T09:38:44;95641.56;;;-0.67;100.00
11487;BME280;10510;47.942;9.442;2023-01-25T09:45:32;95642.03;;;-0.61;100.00
11487;BME280;10510;47.942;9.442;2023-01-25T09:54:09;95642.66;;;-0.57;100.00
11487;BME280;10510;47.942;9.442;2023-01-25T09:56:27;95645.25;;;-0.57;100.00
11487;BME280;10510;47.942;9.442;2023-01-25T09:58:45;95634.16;;;-0.58;100.00
11487;BME280;10510;47.942;9.442;2023-01-25T10:00:48;95641.66;;;-0.55;100.00
11487;BME280;10510;47.942;9.442;2023-01-25T10:03:15;95639.28;;;-0.58;100.00
11487;BME280;10510;47.942;9.442;2023-01-25T10:05:25;95637.53;;;-0.57;100.00
11487;BME280;10510;47.942;9.442;2023-01-25T10:07:44;95635.91;;;-0.58;100.00
11487;BME280;10510;47.942;9.442;2023-01-25T10:10:10;95631.56;;;-0.58;100.00
11487;BME280;10510;47.942;9.442;2023-01-25T10:12:18;95629.75;;;-0.56;100.00
11487;BME280;10510;47.942;9.442;2023-01-25T10:14:20;95634.88;;;-0.56;100.00
11487;BME280;10510;47.942;9.442;2023-01-25T10:16:37;95638.16;;;-0.54;100.00
11487;BME280;10510;47.942;9.442;2023-01-25T10:21:25;95642.41;;;-0.53;100.00
11487;BME280;10510;47.942;9.442;2023-01-25T10:29:57;95641.03;;;-0.58;100.00
11487;BME280;10510;47.942;9.442;2023-01-25T10:34:20;95633.84;;;-0.53;100.00
11487;BME280;10510;47.942;9.442;2023-01-25T10:36:26;95630.38;;;-0.52;100.00
11487;BME280;10510;47.942;9.442;2023-01-25T10:38:48;95625.06;;;-0.49;100.00
11487;BME280;10510;47.942;9.442;2023-01-25T10:40:53;95619.94;;;-0.49;100.00
11487;BME280;10510;47.942;9.442;2023-01-25T10:43:01;95621.69;;;-0.50;100.00
11487;BME280;10510;47.942;9.442;2023-01-25T10:45:10;95620.94;;;-0.52;100.00
11487;BME280;10510;47.942;9.442;2023-01-25T10:47:17;95614.97;;;-0.52;100.00
11487;BME280;10510;47.942;9.442;2023-01-25T10:49:42;95618.38;;;-0.52;100.00
11487;BME280;10510;47.942;9.442;2023-01-25T10:51:45;95617.38;;;-0.49;100.00
11487;BME280;10510;47.942;9.442;2023-01-25T10:53:58;95618.25;;;-0.50;100.00
11487;BME280;10510;47.942;9.442;2023-01-25T10:58:34;95610.66;;;-0.52;100.00
11487;BME280;10510;47.942;9.442;2023-01-25T11:00:38;95612.31;;;-0.51;100.00
11487;BME280;10510;47.942;9.442;2023-01-25T11:02:46;95597.00;;;-0.52;100.00
11487;BME280;10510;47.942;9.442;2023-01-25T11:04:47;95599.47;;;-0.51;100.00
11487;BME280;10510;47.942;9.442;2023-01-25T11:06:48;95599.47;;;-0.51;100.00
11487;BME280;10510;47.942;9.442;2023-01-25T11:08:50;95599.28;;;-0.48;100.00
11487;BME280;10510;47.942;9.442;2023-01-25T11:10:51;95601.13;;;-0.50;100.00
11487;BME280;10510;47.942;9.442;2023-01-25T11:15:22;95592.31;;;-0.46;100.00
11487;BME280;10510;47.942;9.442;2023-01-25T11:17:26;95585.34;;;-0.43;100.00